sensor_id;sensor_type;location;lat;lon;timestamp;pressure;altitude;pressure_sealevel;temperature;humidity
46394;BME280;32099;53.588;10.176;2023-08-01T00:00:13;99407.06;;;17.90;97.93
46394;BME280;32099;53.588;10.176;2023-08-01T00:02:39;99418.66;;;17.92;97.75
46394;BME280;32099;53.588;10.176;2023-08-01T00:05:07;99407.88;;;17.91;97.60
46394;BME280;32099;53.588;10.176;2023-08-01T00:07:32;99408.16;;;17.89;97.90
46394;BME280;32099;53.588;10.176;2023-08-01T00:09:58;99403.72;;;17.88;97.75
46394;BME280;32099;53.588;10.176;2023-08-01T00:12:23;99399.88;;;17.89;97.65
46394;BME280;32099;53.588;10.176;2023-08-01T00:14:49;99395.44;;;17.83;97.59
46394;BME280;32099;53.588;10.176;2023-08-01T00:17:14;99392.06;;;17.76;98.33
46394;BME280;32099;53.588;10.176;2023-08-01T00:19:40;99392.31;;;17.74;97.75
46394;BME280;32099;53.588;10.176;2023-08-01T00:22:05;99390.94;;;17.71;97.73
46394;BME280;32099;53.588;10.176;2023-08-01T00:24:31;99388.19;;;17.71;97.93
46394;BME280;32099;53.588;10.176;2023-08-01T00:26:56;99360.56;;;17.66;97.61
46394;BME280;32099;53.588;10.176;2023-08-01T00:29:22;99361.13;;;17.68;97.57
46394;BME280;32099;53.588;10.176;2023-08-01T00:31:47;99354.25;;;17.71;96.95
46394;BME280;32099;53.588;10.176;2023-08-01T00:34:13;99351.50;;;17.71;96.41
46394;BME280;32099;53.588;10.176;2023-08-01T00:36:38;99345.41;;;17.69;96.43
46394;BME280;32099;53.588;10.176;2023-08-01T00:39:03;99347.34;;;17.68;96.24
46394;BME280;32099;53.588;10.176;2023-08-01T00:41:29;99344.03;;;17.66;96.10
46394;BME280;32099;53.588;10.176;2023-08-01T00:43:54;99336.84;;;17.65;96.12
46394;BME280;32099;53.588;10.176;2023-08-01T00:46:19;99328.59;;;17.65;95.73
46394;BME280;32099;53.588;10.176;2023-08-01T00:48:45;99325.00;;;17.65;95.65
46394;BME280;32099;53.588;10.176;2023-08-01T00:51:11;99325.25;;;17.63;95.75
46394;BME280;32099;53.588;10.176;2023-08-01T00:53:37;99323.59;;;17.62;95.88
46394;BME280;32099;53.588;10.176;2023-08-01T00:56:03;99335.97;;;17.60;95.11
46394;BME280;32099;53.588;10.176;2023-08-01T00:58:29;99327.41;;;17.56;95.38
46394;BME280;32099;53.588;10.176;2023-08-01T01:00:54;99321.34;;;17.54;95.55
46394;BME280;32099;53.588;10.176;2023-08-01T01:03:21;99313.06;;;17.54;95.33
46394;BME280;32099;53.588;10.176;2023-08-01T01:05:49;99307.25;;;17.50;95.30
46394;BME280;32099;53.588;10.176;2023-08-01T01:08:21;99300.88;;;17.45;94.91
46394;BME280;32099;53.588;10.176;2023-08-01T01:10:46;99298.34;;;17.38;95.54
46394;BME280;32099;53.588;10.176;2023-08-01T01:13:11;99299.38;;;17.32;95.60
46394;BME280;32099;53.588;10.176;2023-08-01T01:15:37;99295.81;;;17.31;96.28
46394;BME280;32099;53.588;10.176;2023-08-01T01:18:02;99307.13;;;17.35;96.32
46394;BME280;32099;53.588;10.176;2023-08-01T01:20:30;99291.47;;;17.40;95.70
46394;BME280;32099;53.588;10.176;2023-08-01T01:22:59;99284.34;;;17.45;95.33
46394;BME280;32099;53.588;10.176;2023-08-01T01:25:26;99286.59;;;17.48;95.53
46394;BME280;32099;53.588;10.176;2023-08-01T01:27:52;99292.34;;;17.46;95.28
46394;BME280;32099;53.588;10.176;2023-08-01T01:30:19;99292.31;;;17.41;95.87
46394;BME280;32099;53.588;10.176;2023-08-01T01:32:46;99289.00;;;17.39;95.88
46394;BME280;32099;53.588;10.176;2023-08-01T01:35:11;99272.19;;;17.40;95.43
46394;BME280;32099;53.588;10.176;2023-08-01T01:37:36;99273.25;;;17.34;95.73
46394;BME280;32099;53.588;10.176;2023-08-01T01:40:02;99273.47;;;17.27;95.81
46394;BME280;32099;53.588;10.176;2023-08-01T01:42:27;99262.75;;;17.31;96.75
46394;BME280;32099;53.588;10.176;2023-08-01T01:44:52;99255.59;;;17.30;96.49
46394;BME280;32099;53.588;10.176;2023-08-01T01:47:18;99254.22;;;17.33;96.15
46394;BME280;32099;53.588;10.176;2023-08-01T01:49:43;99250.94;;;17.36;95.79
46394;BME280;32099;53.588;10.176;2023-08-01T01:52:08;99237.19;;;17.36;96.15
46394;BME280;32099;53.588;10.176;2023-08-01T01:54:34;99248.19;;;17.36;95.95
46394;BME280;32099;53.588;10.176;2023-08-01T01:56:59;99236.91;;;17.37;95.61
46394;BME280;32099;53.588;10.176;2023-08-01T01:59:24;99221.50;;;17.36;95.75
46394;BME280;32099;53.588;10.176;2023-08-01T02:01:49;99215.72;;;17.38;95.94
46394;BME280;32099;53.588;10.176;2023-08-01T02:04:15;99223.97;;;17.38;95.86
46394;BME280;32099;53.588;10.176;2023-08-01T02:06:40;99219.84;;;17.40;95.79
46394;BME280;32099;53.588;10.176;2023-08-01T02:09:06;99222.06;;;17.43;95.67
46394;BME280;32099;53.588;10.176;2023-08-01T02:11:32;99218.47;;;17.43;95.74
46394;BME280;32099;53.588;10.176;2023-08-01T02:13:57;99220.13;;;17.44;95.96
46394;BME280;32099;53.588;10.176;2023-08-01T02:16:23;99213.25;;;17.41;96.04
46394;BME280;32099;53.588;10.176;2023-08-01T02:18:48;99217.94;;;17.41;96.26
46394;BME280;32099;53.588;10.176;2023-08-01T02:21:13;99209.91;;;17.39;96.14
46394;BME280;32099;53.588;10.176;2023-08-01T02:23:38;99214.09;;;17.42;96.08
46394;BME280;32099;53.588;10.176;2023-08-01T02:26:04;99218.75;;;17.41;96.25
46394;BME280;32099;53.588;10.176;2023-08-01T02:28:29;99205.53;;;17.43;96.11
46394;BME280;32099;53.588;10.176;2023-08-01T02:30:54;99208.31;;;17.43;95.63
46394;BME280;32099;53.588;10.176;2023-08-01T02:33:20;99207.72;;;17.36;95.75
46394;BME280;32099;53.588;10.176;2023-08-01T02:35:48;99204.13;;;17.36;96.34
46394;BME280;32099;53.588;10.176;2023-08-01T02:38:13;99185.34;;;17.33;95.98
46394;BME280;32099;53.588;10.176;2023-08-01T02:40:39;99193.31;;;17.29;96.33
46394;BME280;32099;53.588;10.176;2023-08-01T02:43:04;99196.88;;;17.24;96.35
46394;BME280;32099;53.588;10.176;2023-08-01T02:45:29;99202.44;;;17.30;96.49
46394;BME280;32099;53.588;10.176;2023-08-01T02:47:54;99197.22;;;17.33;96.25
46394;BME280;32099;53.588;10.176;2023-08-01T02:50:20;99195.00;;;17.30;95.86
46394;BME280;32099;53.588;10.176;2023-08-01T02:52:45;99185.59;;;17.26;96.48
46394;BME280;32099;53.588;10.176;2023-08-01T02:55:10;99185.34;;;17.33;96.10
46394;BME280;32099;53.588;10.176;2023-08-01T02:57:36;99186.72;;;17.30;96.34
46394;BME280;32099;53.588;10.176;2023-08-01T03:00:01;99180.94;;;17.26;96.43
46394;BME280;32099;53.588;10.176;2023-08-01T03:02:30;99182.28;;;17.24;96.85
46394;BME280;32099;53.588;10.176;2023-08-01T03:04:56;99175.69;;;17.25;96.74
46394;BME280;32099;53.588;10.176;2023-08-01T03:07:21;99178.75;;;17.29;96.53
46394;BME280;32099;53.588;10.176;2023-08-01T03:09:47;99172.38;;;17.28;96.36
46394;BME280;32099;53.588;10.176;2023-08-01T03:12:12;99160.56;;;17.27;96.71
46394;BME280;32099;53.588;10.176;2023-08-01T03:14:37;99163.03;;;17.29;96.78
46394;BME280;32099;53.588;10.176;2023-08-01T03:17:03;99166.34;;;17.31;96.70
46394;BME280;32099;53.588;10.176;2023-08-01T03:19:28;99166.34;;;17.31;96.76
46394;BME280;32099;53.588;10.176;2023-08-01T03:21:53;99163.88;;;17.35;96.47
46394;BME280;32099;53.588;10.176;2023-08-01T03:24:19;99155.34;;;17.31;97.00
46394;BME280;32099;53.588;10.176;2023-08-01T03:26:44;99153.66;;;17.25;97.22
46394;BME280;32099;53.588;10.176;2023-08-01T03:29:09;99154.19;;;17.27;97.31
46394;BME280;32099;53.588;10.176;2023-08-01T03:31:34;99144.59;;;17.30;97.19
46394;BME280;32099;53.588;10.176;2023-08-01T03:34:00;99153.94;;;17.29;97.00
46394;BME280;32099;53.588;10.176;2023-08-01T03:36:25;99149.81;;;17.31;97.03
46394;BME280;32099;53.588;10.176;2023-08-01T03:38:50;99147.06;;;17.31;97.08
46394;BME280;32099;53.588;10.176;2023-08-01T03:41:16;99149.03;;;17.36;96.99
46394;BME280;32099;53.588;10.176;2023-08-01T03:43:41;99148.50;;;17.39;96.71
46394;BME280;32099;53.588;10.176;2023-08-01T03:46:07;99146.31;;;17.41;96.56
46394;BME280;32099;53.588;10.176;2023-08-01T03:48:32;99136.94;;;17.42;96.65
46394;BME280;32099;53.588;10.176;2023-08-01T03:50:57;99139.44;;;17.43;96.49
46394;BME280;32099;53.588;10.176;2023-08-01T03:53:23;99134.72;;;17.44;97.05
46394;BME280;32099;53.588;10.176;2023-08-01T03:55:48;99134.72;;;17.44;96.45
46394;BME280;32099;53.588;10.176;2023-08-01T03:58:13;99129.78;;;17.46;96.34
46394;BME280;32099;53.588;10.176;2023-08-01T04:00:39;99135.59;;;17.50;96.30
46394;BME280;32099;53.588;10.176;2023-08-01T04:03:04;99128.72;;;17.52;96.32
46394;BME280;32099;53.588;10.176;2023-08-01T04:05:29;99135.63;;;17.55;96.44
46394;BME280;32099;53.588;10.176;2023-08-01T04:07:55;99127.63;;;17.53;96.13
46394;BME280;32099;53.588;10.176;2023-08-01T04:10:21;99125.69;;;17.54;96.40
46394;BME280;32099;53.588;10.176;2023-08-01T04:12:47;99118.53;;;17.53;96.29
46394;BME280;32099;53.588;10.176;2023-08-01T04:15:12;99129.53;;;17.53;96.54
46394;BME280;32099;53.588;10.176;2023-08-01T04:17:38;99127.63;;;17.53;96.44
46394;BME280;32099;53.588;10.176;2023-08-01T04:20:03;99127.63;;;17.53;96.56
46394;BME280;32099;53.588;10.176;2023-08-01T04:22:29;99131.50;;;17.57;96.32
46394;BME280;32099;53.588;10.176;2023-08-01T04:24:54;99137.56;;;17.60;96.13
46394;BME280;32099;53.588;10.176;2023-08-01T04:27:20;99130.41;;;17.58;96.69
46394;BME280;32099;53.588;10.176;2023-08-01T04:29:45;99136.19;;;17.57;96.30
46394;BME280;32099;53.588;10.176;2023-08-01T04:32:11;99132.88;;;17.55;96.24
46394;BME280;32099;53.588;10.176;2023-08-01T04:34:38;99129.53;;;17.53;96.67
46394;BME280;32099;53.588;10.176;2023-08-01T04:37:04;99130.13;;;17.55;96.86
46394;BME280;32099;53.588;10.176;2023-08-01T04:39:29;99132.34;;;17.58;96.64
46394;BME280;32099;53.588;10.176;2023-08-01T04:41:54;99130.13;;;17.60;96.62
46394;BME280;32099;53.588;10.176;2023-08-01T04:44:20;99131.25;;;17.64;96.25
46394;BME280;32099;53.588;10.176;2023-08-01T04:46:45;99129.88;;;17.67;96.42
46394;BME280;32099;53.588;10.176;2023-08-01T04:49:10;99131.00;;;17.66;96.63
46394;BME280;32099;53.588;10.176;2023-08-01T04:51:35;99132.34;;;17.63;96.32
46394;BME280;32099;53.588;10.176;2023-08-01T04:54:01;99128.78;;;17.63;96.62
46394;BME280;32099;53.588;10.176;2023-08-01T04:56:26;99129.31;;;17.60;96.58
46394;BME280;32099;53.588;10.176;2023-08-01T04:58:51;99129.59;;;17.58;96.80
46394;BME280;32099;53.588;10.176;2023-08-01T05:01:17;99130.13;;;17.60;96.38
46394;BME280;32099;53.588;10.176;2023-08-01T05:03:42;99134.00;;;17.64;96.32
46394;BME280;32099;53.588;10.176;2023-08-01T05:06:07;99132.34;;;17.63;96.58
46394;BME280;32099;53.588;10.176;2023-08-01T05:08:33;99135.09;;;17.63;96.18
46394;BME280;32099;53.588;10.176;2023-08-01T05:10:58;99131.81;;;17.66;96.09
46394;BME280;32099;53.588;10.176;2023-08-01T05:13:23;99128.25;;;17.71;96.17
46394;BME280;32099;53.588;10.176;2023-08-01T05:15:49;99121.34;;;17.68;96.47
46394;BME280;32099;53.588;10.176;2023-08-01T05:18:15;99124.63;;;17.65;96.50
46394;BME280;32099;53.588;10.176;2023-08-01T05:20:41;99127.69;;;17.69;96.12
46394;BME280;32099;53.588;10.176;2023-08-01T05:23:07;99123.84;;;17.70;96.78
46394;BME280;32099;53.588;10.176;2023-08-01T05:25:32;99127.69;;;17.69;96.31
46394;BME280;32099;53.588;10.176;2023-08-01T05:27:57;99130.19;;;17.70;96.38
46394;BME280;32099;53.588;10.176;2023-08-01T05:30:24;99138.19;;;17.72;96.57
46394;BME280;32099;53.588;10.176;2023-08-01T05:32:49;99135.97;;;17.74;96.37
46394;BME280;32099;53.588;10.176;2023-08-01T05:35:15;99129.38;;;17.75;96.07
46394;BME280;32099;53.588;10.176;2023-08-01T05:37:40;99124.44;;;17.77;96.32
46394;BME280;32099;53.588;10.176;2023-08-01T05:40:06;99129.09;;;17.77;96.33
46394;BME280;32099;53.588;10.176;2023-08-01T05:42:32;99130.75;;;17.78;95.86
46394;BME280;32099;53.588;10.176;2023-08-01T05:44:57;99123.03;;;17.80;95.77
46394;BME280;32099;53.588;10.176;2023-08-01T05:47:22;99119.44;;;17.74;95.65
46394;BME280;32099;53.588;10.176;2023-08-01T05:49:48;99127.44;;;17.76;95.70
46394;BME280;32099;53.588;10.176;2023-08-01T05:52:14;99126.88;;;17.73;95.93
46394;BME280;32099;53.588;10.176;2023-08-01T05:54:39;99126.59;;;17.70;95.85
46394;BME280;32099;53.588;10.176;2023-08-01T05:57:04;99127.44;;;17.70;95.90
46394;BME280;32099;53.588;10.176;2023-08-01T05:59:31;99125.50;;;17.66;96.03
46394;BME280;32099;53.588;10.176;2023-08-01T06:01:56;99124.09;;;17.68;96.47
46394;BME280;32099;53.588;10.176;2023-08-01T06:04:21;99128.78;;;17.68;95.93
46394;BME280;32099;53.588;10.176;2023-08-01T06:06:47;99133.75;;;17.71;96.48
46394;BME280;32099;53.588;10.176;2023-08-01T06:09:12;99137.34;;;17.71;96.96
46394;BME280;32099;53.588;10.176;2023-08-01T06:11:37;99131.53;;;17.68;96.18
46394;BME280;32099;53.588;10.176;2023-08-01T06:14:02;99128.50;;;17.64;96.07
46394;BME280;32099;53.588;10.176;2023-08-01T06:16:28;99120.50;;;17.68;96.24
46394;BME280;32099;53.588;10.176;2023-08-01T06:18:53;99119.13;;;17.65;95.86
46394;BME280;32099;53.588;10.176;2023-08-01T06:21:18;99122.16;;;17.64;95.82
46394;BME280;32099;53.588;10.176;2023-08-01T06:23:44;99125.50;;;17.66;95.95
46394;BME280;32099;53.588;10.176;2023-08-01T06:26:09;99125.50;;;17.66;95.69
46394;BME280;32099;53.588;10.176;2023-08-01T06:28:34;99116.91;;;17.62;95.55
46394;BME280;32099;53.588;10.176;2023-08-01T06:30:59;99121.31;;;17.63;96.33
46394;BME280;32099;53.588;10.176;2023-08-01T06:33:25;99112.50;;;17.61;95.98
46394;BME280;32099;53.588;10.176;2023-08-01T06:35:50;99122.41;;;17.62;96.39
46394;BME280;32099;53.588;10.176;2023-08-01T06:38:15;99120.78;;;17.66;96.94
46394;BME280;32099;53.588;10.176;2023-08-01T06:40:40;99123.84;;;17.70;96.50
46394;BME280;32099;53.588;10.176;2023-08-01T06:43:06;99130.75;;;17.78;96.08
46394;BME280;32099;53.588;10.176;2023-08-01T06:45:31;99132.97;;;17.86;97.16
46394;BME280;32099;53.588;10.176;2023-08-01T06:47:56;99131.34;;;17.90;95.52
46394;BME280;32099;53.588;10.176;2023-08-01T06:50:22;99135.53;;;17.98;95.61
46394;BME280;32099;53.588;10.176;2023-08-01T06:52:48;99141.28;;;17.96;94.60
46394;BME280;32099;53.588;10.176;2023-08-01T06:55:13;99136.28;;;17.88;94.80
46394;BME280;32099;53.588;10.176;2023-08-01T06:57:39;99144.84;;;17.86;94.96
46394;BME280;32099;53.588;10.176;2023-08-01T07:00:04;99144.81;;;17.81;94.50
46394;BME280;32099;53.588;10.176;2023-08-01T07:02:30;99145.34;;;17.73;94.53
46394;BME280;32099;53.588;10.176;2023-08-01T07:04:56;99148.34;;;17.66;94.40
46394;BME280;32099;53.588;10.176;2023-08-01T07:07:21;99156.06;;;17.64;94.48
46394;BME280;32099;53.588;10.176;2023-08-01T07:09:47;99156.56;;;17.61;94.53
46394;BME280;32099;53.588;10.176;2023-08-01T07:12:12;99159.34;;;17.61;94.79
46394;BME280;32099;53.588;10.176;2023-08-01T07:14:37;99158.53;;;17.61;95.11
46394;BME280;32099;53.588;10.176;2023-08-01T07:17:02;99162.94;;;17.62;95.47
46394;BME280;32099;53.588;10.176;2023-08-01T07:19:28;99153.81;;;17.61;95.08
46394;BME280;32099;53.588;10.176;2023-08-01T07:21:53;99151.91;;;17.62;94.33
46394;BME280;32099;53.588;10.176;2023-08-01T07:24:18;99155.47;;;17.62;93.54
46394;BME280;32099;53.588;10.176;2023-08-01T07:26:44;99159.66;;;17.65;93.65
46394;BME280;32099;53.588;10.176;2023-08-01T07:29:09;99158.25;;;17.62;92.07
46394;BME280;32099;53.588;10.176;2023-08-01T07:31:36;99151.63;;;17.63;92.96
46394;BME280;32099;53.588;10.176;2023-08-01T07:34:01;99155.00;;;17.70;93.51
46394;BME280;32099;53.588;10.176;2023-08-01T07:36:27;99152.28;;;17.86;93.13
46394;BME280;32099;53.588;10.176;2023-08-01T07:38:53;99158.44;;;18.03;93.08
46394;BME280;32099;53.588;10.176;2023-08-01T07:41:19;99163.69;;;18.15;91.50
46394;BME280;32099;53.588;10.176;2023-08-01T07:43:44;99160.13;;;18.20;90.53
46394;BME280;32099;53.588;10.176;2023-08-01T07:46:09;99166.75;;;18.24;90.20
46394;BME280;32099;53.588;10.176;2023-08-01T07:48:36;99159.59;;;18.28;90.13
46394;BME280;32099;53.588;10.176;2023-08-01T07:51:02;99149.69;;;18.38;91.48
46394;BME280;32099;53.588;10.176;2023-08-01T07:53:29;99159.06;;;18.47;90.94
46394;BME280;32099;53.588;10.176;2023-08-01T07:55:54;99158.53;;;18.50;89.67
46394;BME280;32099;53.588;10.176;2023-08-01T07:58:21;99151.63;;;18.73;89.87
46394;BME280;32099;53.588;10.176;2023-08-01T08:00:46;99154.38;;;18.84;87.24
46394;BME280;32099;53.588;10.176;2023-08-01T08:03:11;99156.88;;;18.85;88.17
46394;BME280;32099;53.588;10.176;2023-08-01T08:05:36;99161.56;;;18.85;87.03
46394;BME280;32099;53.588;10.176;2023-08-01T08:08:03;99159.09;;;18.83;87.91
46394;BME280;32099;53.588;10.176;2023-08-01T08:10:30;99150.53;;;18.90;87.18
46394;BME280;32099;53.588;10.176;2023-08-01T08:12:55;99160.47;;;18.96;87.54
46394;BME280;32099;53.588;10.176;2023-08-01T08:15:20;99165.44;;;19.15;87.20
46394;BME280;32099;53.588;10.176;2023-08-01T08:17:46;99169.84;;;19.26;86.61
46394;BME280;32099;53.588;10.176;2023-08-01T08:20:11;99170.06;;;19.45;85.61
46394;BME280;32099;53.588;10.176;2023-08-01T08:22:36;99168.59;;;19.73;83.78
46394;BME280;32099;53.588;10.176;2023-08-01T08:25:02;99172.41;;;19.93;83.86
46394;BME280;32099;53.588;10.176;2023-08-01T08:27:27;99169.97;;;19.86;82.77
46394;BME280;32099;53.588;10.176;2023-08-01T08:29:52;99170.47;;;19.94;83.36
46394;BME280;32099;53.588;10.176;2023-08-01T08:32:18;99171.81;;;20.01;82.62
46394;BME280;32099;53.588;10.176;2023-08-01T08:34:43;99167.34;;;20.11;79.37
46394;BME280;32099;53.588;10.176;2023-08-01T08:37:08;99166.28;;;20.01;82.29
46394;BME280;32099;53.588;10.176;2023-08-01T08:39:34;99162.16;;;19.99;81.56
46394;BME280;32099;53.588;10.176;2023-08-01T08:41:59;99171.31;;;19.94;80.49
46394;BME280;32099;53.588;10.176;2023-08-01T08:44:24;99177.13;;;19.82;82.07
46394;BME280;32099;53.588;10.176;2023-08-01T08:46:53;99171.34;;;19.73;79.01
46394;BME280;32099;53.588;10.176;2023-08-01T08:49:22;99171.91;;;19.76;81.86
46394;BME280;32099;53.588;10.176;2023-08-01T08:51:51;99175.25;;;19.72;82.96
46394;BME280;32099;53.588;10.176;2023-08-01T08:54:17;99173.28;;;19.73;83.59
46394;BME280;32099;53.588;10.176;2023-08-01T08:56:43;99174.66;;;19.76;83.47
46394;BME280;32099;53.588;10.176;2023-08-01T08:59:09;99159.88;;;20.11;84.45
46394;BME280;32099;53.588;10.176;2023-08-01T09:01:35;99162.38;;;20.53;82.99
46394;BME280;32099;53.588;10.176;2023-08-01T09:04:01;99165.59;;;20.70;80.75
46394;BME280;32099;53.588;10.176;2023-08-01T09:06:30;99165.38;;;20.61;80.26
46394;BME280;32099;53.588;10.176;2023-08-01T09:09:03;99161.03;;;20.45;79.38
46394;BME280;32099;53.588;10.176;2023-08-01T09:14:11;99163.72;;;20.15;81.82
46394;BME280;32099;53.588;10.176;2023-08-01T09:16:36;99164.06;;;20.03;81.71
46394;BME280;32099;53.588;10.176;2023-08-01T09:19:02;99163.84;;;19.95;81.95
46394;BME280;32099;53.588;10.176;2023-08-01T09:21:31;99169.38;;;19.95;82.81
46394;BME280;32099;53.588;10.176;2023-08-01T09:24:10;99169.91;;;19.97;82.81
46394;BME280;32099;53.588;10.176;2023-08-01T09:26:39;99164.13;;;19.88;82.09
46394;BME280;32099;53.588;10.176;2023-08-01T09:29:05;99168.31;;;19.70;81.79
46394;BME280;32099;53.588;10.176;2023-08-01T09:31:40;99172.81;;;19.45;82.72
46394;BME280;32099;53.588;10.176;2023-08-01T09:34:20;99164.03;;;19.27;85.62
46394;BME280;32099;53.588;10.176;2023-08-01T09:36:47;99164.59;;;19.14;86.32
46394;BME280;32099;53.588;10.176;2023-08-01T09:39:20;99162.94;;;19.13;86.41
46394;BME280;32099;53.588;10.176;2023-08-01T09:41:58;99158.00;;;19.05;86.43
46394;BME280;32099;53.588;10.176;2023-08-01T09:44:25;99164.91;;;19.02;87.48
46394;BME280;32099;53.588;10.176;2023-08-01T09:46:58;99153.03;;;19.02;86.76
46394;BME280;32099;53.588;10.176;2023-08-01T09:49:24;99160.75;;;19.05;87.69
46394;BME280;32099;53.588;10.176;2023-08-01T09:51:49;99167.13;;;19.00;86.23
46394;BME280;32099;53.588;10.176;2023-08-01T09:54:16;99163.25;;;18.96;87.31
46394;BME280;32099;53.588;10.176;2023-08-01T09:56:44;99161.59;;;19.00;86.92
46394;BME280;32099;53.588;10.176;2023-08-01T09:59:10;99153.53;;;19.24;87.96
46394;BME280;32099;53.588;10.176;2023-08-01T10:01:36;99161.94;;;19.80;86.82
46394;BME280;32099;53.588;10.176;2023-08-01T10:04:03;99160.25;;;20.39;83.84
46394;BME280;32099;53.588;10.176;2023-08-01T10:06:31;99161.34;;;20.83;81.57
46394;BME280;32099;53.588;10.176;2023-08-01T10:08:59;99162.00;;;21.04;76.82
46394;BME280;32099;53.588;10.176;2023-08-01T10:11:24;99170.97;;;21.20;79.14
46394;BME280;32099;53.588;10.176;2023-08-01T10:13:51;99154.66;;;21.43;78.85
46394;BME280;32099;53.588;10.176;2023-08-01T10:16:16;99166.00;;;21.71;77.25
46394;BME280;32099;53.588;10.176;2023-08-01T10:18:42;99161.31;;;21.71;74.75
46394;BME280;32099;53.588;10.176;2023-08-01T10:21:12;99159.47;;;21.62;75.18
46394;BME280;32099;53.588;10.176;2023-08-01T10:23:39;99150.06;;;21.33;72.99
46394;BME280;32099;53.588;10.176;2023-08-01T10:26:07;99156.59;;;21.42;77.64
46394;BME280;32099;53.588;10.176;2023-08-01T10:28:34;99158.94;;;21.60;74.79
46394;BME280;32099;53.588;10.176;2023-08-01T10:31:13;99166.44;;;21.59;74.88
46394;BME280;32099;53.588;10.176;2023-08-01T10:33:40;99149.44;;;21.66;75.28
46394;BME280;32099;53.588;10.176;2023-08-01T10:36:14;99156.66;;;21.67;75.98
46394;BME280;32099;53.588;10.176;2023-08-01T10:41:29;99157.22;;;21.39;74.54
46394;BME280;32099;53.588;10.176;2023-08-01T10:44:11;99167.38;;;21.20;74.82
46394;BME280;32099;53.588;10.176;2023-08-01T10:46:50;99157.81;;;21.07;77.19
46394;BME280;32099;53.588;10.176;2023-08-01T10:49:17;99159.66;;;21.17;78.19
46394;BME280;32099;53.588;10.176;2023-08-01T10:51:44;99160.59;;;21.61;78.12
46394;BME280;32099;53.588;10.176;2023-08-01T10:54:20;99168.44;;;21.78;77.86
46394;BME280;32099;53.588;10.176;2023-08-01T10:56:48;99174.69;;;21.64;78.05
46394;BME280;32099;53.588;10.176;2023-08-01T10:59:14;99183.84;;;21.35;80.86
46394;BME280;32099;53.588;10.176;2023-08-01T11:01:48;99188.31;;;21.02;81.34
46394;BME280;32099;53.588;10.176;2023-08-01T11:04:19;99185.53;;;20.67;78.72
46394;BME280;32099;53.588;10.176;2023-08-01T11:06:49;99191.78;;;20.43;83.47
46394;BME280;32099;53.588;10.176;2023-08-01T11:09:20;99190.44;;;20.35;84.39
46394;BME280;32099;53.588;10.176;2023-08-01T11:11:50;99188.53;;;20.31;83.83
46394;BME280;32099;53.588;10.176;2023-08-01T11:14:25;99174.22;;;20.18;84.41
46394;BME280;32099;53.588;10.176;2023-08-01T11:16:53;99196.97;;;20.05;85.61
46394;BME280;32099;53.588;10.176;2023-08-01T11:21:45;99185.50;;;19.56;89.14
46394;BME280;32099;53.588;10.176;2023-08-01T11:24:10;99195.25;;;19.18;89.07
46394;BME280;32099;53.588;10.176;2023-08-01T11:26:36;99218.16;;;18.77;87.79
46394;BME280;32099;53.588;10.176;2023-08-01T11:29:05;99220.88;;;18.46;86.92
46394;BME280;32099;53.588;10.176;2023-08-01T11:31:31;99223.56;;;18.20;86.91
46394;BME280;32099;53.588;10.176;2023-08-01T11:33:59;99219.06;;;17.98;87.70
46394;BME280;32099;53.588;10.176;2023-08-01T11:36:25;99223.84;;;17.65;93.14
46394;BME280;32099;53.588;10.176;2023-08-01T11:38:52;99232.63;;;17.14;93.29
46394;BME280;32099;53.588;10.176;2023-08-01T11:41:17;99219.88;;;16.75;93.41
46394;BME280;32099;53.588;10.176;2023-08-01T11:43:43;99225.44;;;16.53;95.88
46394;BME280;32099;53.588;10.176;2023-08-01T11:46:08;99234.66;;;16.42;95.58
46394;BME280;32099;53.588;10.176;2023-08-01T11:48:34;99237.09;;;16.38;95.95
46394;BME280;32099;53.588;10.176;2023-08-01T11:51:00;99232.97;;;16.35;95.96
46394;BME280;32099;53.588;10.176;2023-08-01T11:53:26;99244.78;;;16.36;97.86
46394;BME280;32099;53.588;10.176;2023-08-01T11:55:53;99245.75;;;16.47;97.53
46394;BME280;32099;53.588;10.176;2023-08-01T11:58:54;99235.41;;;16.59;97.11
46394;BME280;32099;53.588;10.176;2023-08-01T12:01:13;99233.06;;;16.73;96.37
46394;BME280;32099;53.588;10.176;2023-08-01T12:03:45;99227.41;;;16.85;96.27
46394;BME280;32099;53.588;10.176;2023-08-01T12:06:12;99231.69;;;17.03;95.95
46394;BME280;32099;53.588;10.176;2023-08-01T12:08:41;99228.19;;;17.13;94.49
46394;BME280;32099;53.588;10.176;2023-08-01T12:11:18;99233.47;;;17.20;95.08
46394;BME280;32099;53.588;10.176;2023-08-01T12:13:45;99228.91;;;17.36;95.20
46394;BME280;32099;53.588;10.176;2023-08-01T12:16:11;99233.72;;;17.56;95.03
46394;BME280;32099;53.588;10.176;2023-08-01T12:18:38;99238.53;;;17.76;94.35
46394;BME280;32099;53.588;10.176;2023-08-01T12:21:04;99241.13;;;17.98;95.22
46394;BME280;32099;53.588;10.176;2023-08-01T12:23:30;99246.47;;;18.21;94.75
46394;BME280;32099;53.588;10.176;2023-08-01T12:25:56;99242.13;;;18.50;95.23
46394;BME280;32099;53.588;10.176;2023-08-01T12:28:21;99240.25;;;18.82;94.00
46394;BME280;32099;53.588;10.176;2023-08-01T12:30:46;99235.91;;;18.96;91.14
46394;BME280;32099;53.588;10.176;2023-08-01T12:33:11;99231.19;;;19.07;89.81
46394;BME280;32099;53.588;10.176;2023-08-01T12:35:40;99232.84;;;19.14;89.72
46394;BME280;32099;53.588;10.176;2023-08-01T12:38:06;99250.25;;;19.19;88.32
46394;BME280;32099;53.588;10.176;2023-08-01T12:40:35;99241.41;;;19.17;89.11
46394;BME280;32099;53.588;10.176;2023-08-01T12:43:00;99243.06;;;19.23;89.53
46394;BME280;32099;53.588;10.176;2023-08-01T12:45:25;99244.13;;;19.33;88.46
46394;BME280;32099;53.588;10.176;2023-08-01T12:47:50;99257.41;;;19.36;87.92
46394;BME280;32099;53.588;10.176;2023-08-01T12:50:16;99255.47;;;19.31;87.95
46394;BME280;32099;53.588;10.176;2023-08-01T12:52:41;99254.94;;;19.29;88.05